sensor_id;sensor_type;location;lat;lon;timestamp;temperature;humidity
2839;DHT22;1427;48.510;9.060;2023-09-19T00:01:51;16.30;99.90
2839;DHT22;1427;48.510;9.060;2023-09-19T00:04:20;16.30;99.90
2839;DHT22;1427;48.510;9.060;2023-09-19T00:06:56;16.40;99.90
2839;DHT22;1427;48.510;9.060;2023-09-19T00:09:25;16.30;99.90
2839;DHT22;1427;48.510;9.060;2023-09-19T00:11:59;16.30;99.90
2839;DHT22;1427;48.510;9.060;2023-09-19T00:14:31;16.30;99.90
2839;DHT22;1427;48.510;9.060;2023-09-19T00:17:01;16.40;99.90
2839;DHT22;1427;48.510;9.060;2023-09-19T00:19:35;16.40;99.90
2839;DHT22;1427;48.510;9.060;2023-09-19T00:22:05;16.40;99.90
2839;DHT22;1427;48.510;9.060;2023-09-19T00:24:37;16.30;99.90
2839;DHT22;1427;48.510;9.060;2023-09-19T00:27:10;16.40;99.90
2839;DHT22;1427;48.510;9.060;2023-09-19T00:29:41;16.40;99.90
2839;DHT22;1427;48.510;9.060;2023-09-19T00:32:13;16.40;99.90
2839;DHT22;1427;48.510;9.060;2023-09-19T00:34:45;16.40;99.90
2839;DHT22;1427;48.510;9.060;2023-09-19T00:37:20;16.40;99.90
2839;DHT22;1427;48.510;9.060;2023-09-19T00:39:52;16.50;99.90
2839;DHT22;1427;48.510;9.060;2023-09-19T00:42:28;16.40;99.90
2839;DHT22;1427;48.510;9.060;2023-09-19T00:44:59;16.40;99.90
2839;DHT22;1427;48.510;9.060;2023-09-19T00:47:33;16.40;99.90
2839;DHT22;1427;48.510;9.060;2023-09-19T00:50:04;16.50;99.90
2839;DHT22;1427;48.510;9.060;2023-09-19T00:52:39;16.40;99.90
2839;DHT22;1427;48.510;9.060;2023-09-19T00:55:09;16.50;99.90
2839;DHT22;1427;48.510;9.060;2023-09-19T00:57:40;16.50;99.90
2839;DHT22;1427;48.510;9.060;2023-09-19T01:00:10;16.50;99.90
2839;DHT22;1427;48.510;9.060;2023-09-19T01:02:44;16.50;99.90
2839;DHT22;1427;48.510;9.060;2023-09-19T01:05:16;16.50;99.90
2839;DHT22;1427;48.510;9.060;2023-09-19T01:07:50;16.50;99.90
2839;DHT22;1427;48.510;9.060;2023-09-19T01:10:21;16.50;99.90
2839;DHT22;1427;48.510;9.060;2023-09-19T01:12:58;16.50;99.90
2839;DHT22;1427;48.510;9.060;2023-09-19T01:15:43;16.50;99.90
2839;DHT22;1427;48.510;9.060;2023-09-19T01:18:35;16.40;99.90
2839;DHT22;1427;48.510;9.060;2023-09-19T01:21:14;16.30;99.90
2839;DHT22;1427;48.510;9.060;2023-09-19T01:24:10;16.20;99.90
2839;DHT22;1427;48.510;9.060;2023-09-19T01:29:45;16.30;99.90
2839;DHT22;1427;48.510;9.060;2023-09-19T01:32:21;16.40;99.90
2839;DHT22;1427;48.510;9.060;2023-09-19T01:34:54;16.40;99.90
2839;DHT22;1427;48.510;9.060;2023-09-19T01:37:25;16.40;99.90
2839;DHT22;1427;48.510;9.060;2023-09-19T01:39:57;16.40;99.90
2839;DHT22;1427;48.510;9.060;2023-09-19T01:42:48;16.40;99.90
2839;DHT22;1427;48.510;9.060;2023-09-19T01:45:26;16.40;99.90
2839;DHT22;1427;48.510;9.060;2023-09-19T01:48:11;16.50;99.90
2839;DHT22;1427;48.510;9.060;2023-09-19T01:50:56;16.40;99.90
2839;DHT22;1427;48.510;9.060;2023-09-19T01:53:33;16.50;99.90
2839;DHT22;1427;48.510;9.060;2023-09-19T01:56:09;16.50;99.90
2839;DHT22;1427;48.510;9.060;2023-09-19T01:58:46;16.40;99.90
2839;DHT22;1427;48.510;9.060;2023-09-19T02:01:25;16.30;99.90
2839;DHT22;1427;48.510;9.060;2023-09-19T02:03:56;16.40;99.90
2839;DHT22;1427;48.510;9.060;2023-09-19T02:06:29;16.30;99.90
2839;DHT22;1427;48.510;9.060;2023-09-19T02:09:01;16.20;99.90
2839;DHT22;1427;48.510;9.060;2023-09-19T02:11:31;16.20;99.90
2839;DHT22;1427;48.510;9.060;2023-09-19T02:14:04;16.10;99.90
2839;DHT22;1427;48.510;9.060;2023-09-19T02:16:36;16.00;99.90
2839;DHT22;1427;48.510;9.060;2023-09-19T02:19:11;16.00;99.90
2839;DHT22;1427;48.510;9.060;2023-09-19T02:21:41;15.90;99.90
2839;DHT22;1427;48.510;9.060;2023-09-19T02:24:10;15.90;99.90
2839;DHT22;1427;48.510;9.060;2023-09-19T02:26:46;15.90;99.90
2839;DHT22;1427;48.510;9.060;2023-09-19T02:29:16;16.00;99.90
2839;DHT22;1427;48.510;9.060;2023-09-19T02:31:49;15.90;99.90
2839;DHT22;1427;48.510;9.060;2023-09-19T02:34:23;16.00;99.90
2839;DHT22;1427;48.510;9.060;2023-09-19T02:36:54;15.80;99.90
2839;DHT22;1427;48.510;9.060;2023-09-19T02:39:23;15.90;99.90
2839;DHT22;1427;48.510;9.060;2023-09-19T02:41:55;15.90;99.90
2839;DHT22;1427;48.510;9.060;2023-09-19T02:44:30;15.90;99.90
2839;DHT22;1427;48.510;9.060;2023-09-19T02:47:03;15.80;99.90
2839;DHT22;1427;48.510;9.060;2023-09-19T02:49:33;15.80;99.90
2839;DHT22;1427;48.510;9.060;2023-09-19T02:52:05;15.80;99.90
2839;DHT22;1427;48.510;9.060;2023-09-19T02:54:34;15.80;99.90
2839;DHT22;1427;48.510;9.060;2023-09-19T02:57:04;15.80;99.90
2839;DHT22;1427;48.510;9.060;2023-09-19T02:59:38;15.90;99.90
2839;DHT22;1427;48.510;9.060;2023-09-19T03:02:09;16.00;99.90
2839;DHT22;1427;48.510;9.060;2023-09-19T03:04:43;16.10;99.90
2839;DHT22;1427;48.510;9.060;2023-09-19T03:07:15;16.00;99.90
2839;DHT22;1427;48.510;9.060;2023-09-19T03:09:44;16.10;99.90
2839;DHT22;1427;48.510;9.060;2023-09-19T03:12:15;16.10;99.90
2839;DHT22;1427;48.510;9.060;2023-09-19T03:14:47;16.00;99.90
2839;DHT22;1427;48.510;9.060;2023-09-19T03:17:20;16.30;99.90
2839;DHT22;1427;48.510;9.060;2023-09-19T03:19:53;16.30;99.90
2839;DHT22;1427;48.510;9.060;2023-09-19T03:22:24;16.20;99.90
2839;DHT22;1427;48.510;9.060;2023-09-19T03:24:55;16.20;99.90
2839;DHT22;1427;48.510;9.060;2023-09-19T03:27:28;16.30;99.90
2839;DHT22;1427;48.510;9.060;2023-09-19T03:29:58;16.20;99.90
2839;DHT22;1427;48.510;9.060;2023-09-19T03:32:27;16.10;99.90
2839;DHT22;1427;48.510;9.060;2023-09-19T03:35:01;16.20;99.90
2839;DHT22;1427;48.510;9.060;2023-09-19T03:37:33;16.10;99.90
2839;DHT22;1427;48.510;9.060;2023-09-19T03:40:02;16.10;99.90
2839;DHT22;1427;48.510;9.060;2023-09-19T03:42:32;16.10;99.90
2839;DHT22;1427;48.510;9.060;2023-09-19T03:45:03;16.10;99.90
2839;DHT22;1427;48.510;9.060;2023-09-19T03:47:33;16.10;99.90
2839;DHT22;1427;48.510;9.060;2023-09-19T03:50:11;16.20;99.90
2839;DHT22;1427;48.510;9.060;2023-09-19T03:52:45;16.20;99.90
2839;DHT22;1427;48.510;9.060;2023-09-19T03:55:13;16.10;99.90
2839;DHT22;1427;48.510;9.060;2023-09-19T03:57:42;16.10;99.90
2839;DHT22;1427;48.510;9.060;2023-09-19T04:00:19;16.20;99.90
2839;DHT22;1427;48.510;9.060;2023-09-19T04:02:49;16.20;99.90
2839;DHT22;1427;48.510;9.060;2023-09-19T04:05:19;16.10;99.90
2839;DHT22;1427;48.510;9.060;2023-09-19T04:07:48;15.90;99.90
2839;DHT22;1427;48.510;9.060;2023-09-19T04:10:17;15.90;99.90
2839;DHT22;1427;48.510;9.060;2023-09-19T04:12:51;15.90;99.90
2839;DHT22;1427;48.510;9.060;2023-09-19T04:15:21;15.80;99.90
2839;DHT22;1427;48.510;9.060;2023-09-19T04:17:50;16.00;99.90
2839;DHT22;1427;48.510;9.060;2023-09-19T04:20:20;15.90;99.90
2839;DHT22;1427;48.510;9.060;2023-09-19T04:22:50;15.90;99.90
2839;DHT22;1427;48.510;9.060;2023-09-19T04:25:18;16.00;99.90
2839;DHT22;1427;48.510;9.060;2023-09-19T04:27:47;16.20;99.90
2839;DHT22;1427;48.510;9.060;2023-09-19T04:30:15;16.10;99.90
2839;DHT22;1427;48.510;9.060;2023-09-19T04:32:44;16.00;99.90
2839;DHT22;1427;48.510;9.060;2023-09-19T04:35:20;15.90;99.90
2839;DHT22;1427;48.510;9.060;2023-09-19T04:37:49;16.00;99.90
2839;DHT22;1427;48.510;9.060;2023-09-19T04:40:18;16.10;99.90
2839;DHT22;1427;48.510;9.060;2023-09-19T04:42:53;16.00;99.90
2839;DHT22;1427;48.510;9.060;2023-09-19T04:45:24;16.00;99.90
2839;DHT22;1427;48.510;9.060;2023-09-19T04:47:53;16.00;99.90
2839;DHT22;1427;48.510;9.060;2023-09-19T04:50:23;15.90;99.90
2839;DHT22;1427;48.510;9.060;2023-09-19T04:52:55;15.90;99.90
2839;DHT22;1427;48.510;9.060;2023-09-19T04:55:23;15.90;99.90
2839;DHT22;1427;48.510;9.060;2023-09-19T04:57:52;16.00;99.90
2839;DHT22;1427;48.510;9.060;2023-09-19T05:00:25;15.80;99.90
2839;DHT22;1427;48.510;9.060;2023-09-19T05:02:57;15.70;99.90
2839;DHT22;1427;48.510;9.060;2023-09-19T05:05:27;15.70;99.90
2839;DHT22;1427;48.510;9.060;2023-09-19T05:07:55;15.70;99.90
2839;DHT22;1427;48.510;9.060;2023-09-19T05:10:24;15.80;99.90
2839;DHT22;1427;48.510;9.060;2023-09-19T05:12:53;15.80;99.90
2839;DHT22;1427;48.510;9.060;2023-09-19T05:15:22;15.80;99.90
2839;DHT22;1427;48.510;9.060;2023-09-19T05:17:51;15.70;99.90
2839;DHT22;1427;48.510;9.060;2023-09-19T05:20:24;15.80;99.90
2839;DHT22;1427;48.510;9.060;2023-09-19T05:23:02;15.80;99.90
2839;DHT22;1427;48.510;9.060;2023-09-19T05:25:33;15.70;99.90
2839;DHT22;1427;48.510;9.060;2023-09-19T05:28:05;16.00;99.90
2839;DHT22;1427;48.510;9.060;2023-09-19T05:30:34;15.90;99.90
2839;DHT22;1427;48.510;9.060;2023-09-19T05:33:05;16.00;99.90
2839;DHT22;1427;48.510;9.060;2023-09-19T05:35:34;16.00;99.90
2839;DHT22;1427;48.510;9.060;2023-09-19T05:38:05;16.00;99.90
2839;DHT22;1427;48.510;9.060;2023-09-19T05:40:35;16.10;99.90
2839;DHT22;1427;48.510;9.060;2023-09-19T05:43:05;16.10;99.90
2839;DHT22;1427;48.510;9.060;2023-09-19T05:45:33;16.30;99.90
2839;DHT22;1427;48.510;9.060;2023-09-19T05:48:08;16.40;99.90
2839;DHT22;1427;48.510;9.060;2023-09-19T05:50:37;16.40;99.90
2839;DHT22;1427;48.510;9.060;2023-09-19T05:53:06;16.40;99.90
2839;DHT22;1427;48.510;9.060;2023-09-19T05:55:34;16.40;99.90
2839;DHT22;1427;48.510;9.060;2023-09-19T05:58:03;16.40;99.90
2839;DHT22;1427;48.510;9.060;2023-09-19T06:00:31;16.40;99.90
2839;DHT22;1427;48.510;9.060;2023-09-19T06:03:02;16.40;99.90
2839;DHT22;1427;48.510;9.060;2023-09-19T06:05:31;16.50;99.90
2839;DHT22;1427;48.510;9.060;2023-09-19T06:07:59;16.40;99.90
2839;DHT22;1427;48.510;9.060;2023-09-19T06:10:29;16.30;99.90
2839;DHT22;1427;48.510;9.060;2023-09-19T06:12:59;16.40;99.90
2839;DHT22;1427;48.510;9.060;2023-09-19T06:15:27;16.30;99.90
2839;DHT22;1427;48.510;9.060;2023-09-19T06:17:55;16.40;99.90
2839;DHT22;1427;48.510;9.060;2023-09-19T06:20:25;16.30;99.90
2839;DHT22;1427;48.510;9.060;2023-09-19T06:22:53;16.40;99.90
2839;DHT22;1427;48.510;9.060;2023-09-19T06:25:22;16.30;99.90
2839;DHT22;1427;48.510;9.060;2023-09-19T06:27:52;16.40;99.90
2839;DHT22;1427;48.510;9.060;2023-09-19T06:30:22;16.30;99.90
2839;DHT22;1427;48.510;9.060;2023-09-19T06:32:55;16.40;99.90
2839;DHT22;1427;48.510;9.060;2023-09-19T06:35:25;16.40;99.90
2839;DHT22;1427;48.510;9.060;2023-09-19T06:37:54;16.50;99.90
2839;DHT22;1427;48.510;9.060;2023-09-19T06:40:25;16.50;99.90
2839;DHT22;1427;48.510;9.060;2023-09-19T06:42:57;16.50;99.90
2839;DHT22;1427;48.510;9.060;2023-09-19T06:45:25;16.60;99.90
2839;DHT22;1427;48.510;9.060;2023-09-19T06:47:54;16.60;99.90
2839;DHT22;1427;48.510;9.060;2023-09-19T06:50:26;16.70;99.90
2839;DHT22;1427;48.510;9.060;2023-09-19T06:52:55;16.90;99.90
2839;DHT22;1427;48.510;9.060;2023-09-19T06:55:25;17.20;99.90
2839;DHT22;1427;48.510;9.060;2023-09-19T06:57:57;17.50;99.90
2839;DHT22;1427;48.510;9.060;2023-09-19T07:00:25;17.70;99.90
2839;DHT22;1427;48.510;9.060;2023-09-19T07:02:56;17.80;99.90
2839;DHT22;1427;48.510;9.060;2023-09-19T07:05:26;17.80;99.90
2839;DHT22;1427;48.510;9.060;2023-09-19T07:07:55;17.90;99.90
2839;DHT22;1427;48.510;9.060;2023-09-19T07:10:23;18.00;99.90
2839;DHT22;1427;48.510;9.060;2023-09-19T07:12:58;18.20;99.90
2839;DHT22;1427;48.510;9.060;2023-09-19T07:15:26;18.40;99.90
2839;DHT22;1427;48.510;9.060;2023-09-19T07:17:55;18.60;99.90
2839;DHT22;1427;48.510;9.060;2023-09-19T07:20:24;18.70;99.90
2839;DHT22;1427;48.510;9.060;2023-09-19T07:22:53;18.80;99.90
2839;DHT22;1427;48.510;9.060;2023-09-19T07:25:22;18.90;99.90
2839;DHT22;1427;48.510;9.060;2023-09-19T07:27:51;18.90;99.90
2839;DHT22;1427;48.510;9.060;2023-09-19T07:30:21;19.00;99.90
2839;DHT22;1427;48.510;9.060;2023-09-19T07:32:50;19.20;99.90
2839;DHT22;1427;48.510;9.060;2023-09-19T07:35:19;19.10;99.90
2839;DHT22;1427;48.510;9.060;2023-09-19T07:37:48;19.10;99.90
2839;DHT22;1427;48.510;9.060;2023-09-19T07:40:19;19.10;99.90
2839;DHT22;1427;48.510;9.060;2023-09-19T07:42:48;19.10;99.90
2839;DHT22;1427;48.510;9.060;2023-09-19T07:45:17;19.20;99.90
2839;DHT22;1427;48.510;9.060;2023-09-19T07:47:48;19.10;99.90
2839;DHT22;1427;48.510;9.060;2023-09-19T07:50:17;19.10;99.90
2839;DHT22;1427;48.510;9.060;2023-09-19T07:52:46;19.10;99.90
2839;DHT22;1427;48.510;9.060;2023-09-19T07:55:14;19.10;99.90
2839;DHT22;1427;48.510;9.060;2023-09-19T07:57:44;19.00;99.90
2839;DHT22;1427;48.510;9.060;2023-09-19T08:00:13;18.80;99.90
2839;DHT22;1427;48.510;9.060;2023-09-19T08:02:43;18.70;99.90
2839;DHT22;1427;48.510;9.060;2023-09-19T08:05:14;18.60;99.90
2839;DHT22;1427;48.510;9.060;2023-09-19T08:07:45;18.60;99.90
2839;DHT22;1427;48.510;9.060;2023-09-19T08:10:15;18.40;99.90
2839;DHT22;1427;48.510;9.060;2023-09-19T08:12:47;18.50;99.90
2839;DHT22;1427;48.510;9.060;2023-09-19T08:15:17;18.60;99.90
2839;DHT22;1427;48.510;9.060;2023-09-19T08:17:47;18.70;99.90
2839;DHT22;1427;48.510;9.060;2023-09-19T08:20:16;18.70;99.90
2839;DHT22;1427;48.510;9.060;2023-09-19T08:22:47;18.70;99.90
2839;DHT22;1427;48.510;9.060;2023-09-19T08:25:16;18.80;99.90
2839;DHT22;1427;48.510;9.060;2023-09-19T08:27:45;18.90;99.90
2839;DHT22;1427;48.510;9.060;2023-09-19T08:30:15;19.10;99.90
2839;DHT22;1427;48.510;9.060;2023-09-19T08:32:44;19.30;99.90
2839;DHT22;1427;48.510;9.060;2023-09-19T08:35:13;19.50;99.90
2839;DHT22;1427;48.510;9.060;2023-09-19T08:37:43;19.60;99.90
2839;DHT22;1427;48.510;9.060;2023-09-19T08:40:13;19.60;99.90
2839;DHT22;1427;48.510;9.060;2023-09-19T08:42:48;19.60;99.90
2839;DHT22;1427;48.510;9.060;2023-09-19T08:45:17;19.50;99.90
2839;DHT22;1427;48.510;9.060;2023-09-19T08:47:47;19.50;99.90
2839;DHT22;1427;48.510;9.060;2023-09-19T08:50:22;19.50;99.90
2839;DHT22;1427;48.510;9.060;2023-09-19T08:53:00;19.40;99.90
2839;DHT22;1427;48.510;9.060;2023-09-19T08:55:29;19.40;99.90
2839;DHT22;1427;48.510;9.060;2023-09-19T08:58:03;19.30;99.90
2839;DHT22;1427;48.510;9.060;2023-09-19T09:00:31;19.50;99.90
2839;DHT22;1427;48.510;9.060;2023-09-19T09:03:01;19.70;99.90
2839;DHT22;1427;48.510;9.060;2023-09-19T09:05:32;19.90;99.90
2839;DHT22;1427;48.510;9.060;2023-09-19T09:08:02;20.00;99.90
2839;DHT22;1427;48.510;9.060;2023-09-19T09:10:31;20.30;99.90
2839;DHT22;1427;48.510;9.060;2023-09-19T09:12:59;20.20;99.90
2839;DHT22;1427;48.510;9.060;2023-09-19T09:15:29;20.40;99.90
2839;DHT22;1427;48.510;9.060;2023-09-19T09:17:59;20.80;99.90
2839;DHT22;1427;48.510;9.060;2023-09-19T09:20:28;20.70;99.90
2839;DHT22;1427;48.510;9.060;2023-09-19T09:22:56;20.60;99.90
2839;DHT22;1427;48.510;9.060;2023-09-19T09:25:50;20.70;99.90
2839;DHT22;1427;48.510;9.060;2023-09-19T09:28:23;20.60;99.90
2839;DHT22;1427;48.510;9.060;2023-09-19T09:30:51;20.30;99.90
2839;DHT22;1427;48.510;9.060;2023-09-19T09:33:20;20.10;99.90
2839;DHT22;1427;48.510;9.060;2023-09-19T09:35:50;20.10;99.90
2839;DHT22;1427;48.510;9.060;2023-09-19T09:38:23;20.30;99.90
2839;DHT22;1427;48.510;9.060;2023-09-19T09:40:56;20.50;99.90
2839;DHT22;1427;48.510;9.060;2023-09-19T09:43:31;20.70;99.90
2839;DHT22;1427;48.510;9.060;2023-09-19T09:46:18;20.90;99.90
2839;DHT22;1427;48.510;9.060;2023-09-19T09:49:04;20.90;99.90
2839;DHT22;1427;48.510;9.060;2023-09-19T09:52:01;21.00;99.90
2839;DHT22;1427;48.510;9.060;2023-09-19T09:54:35;21.00;99.90
2839;DHT22;1427;48.510;9.060;2023-09-19T09:57:07;21.00;99.90
2839;DHT22;1427;48.510;9.060;2023-09-19T09:59:48;21.20;99.90
2839;DHT22;1427;48.510;9.060;2023-09-19T10:02:21;21.30;99.90
2839;DHT22;1427;48.510;9.060;2023-09-19T10:04:56;21.40;99.90
2839;DHT22;1427;48.510;9.060;2023-09-19T10:07:35;21.20;99.90
2839;DHT22;1427;48.510;9.060;2023-09-19T10:10:10;21.00;99.90
2839;DHT22;1427;48.510;9.060;2023-09-19T10:12:46;21.00;99.90
2839;DHT22;1427;48.510;9.060;2023-09-19T10:15:15;21.00;99.90
2839;DHT22;1427;48.510;9.060;2023-09-19T10:17:44;21.40;99.90
2839;DHT22;1427;48.510;9.060;2023-09-19T10:20:15;21.70;99.90
2839;DHT22;1427;48.510;9.060;2023-09-19T10:23:06;21.90;99.90
2839;DHT22;1427;48.510;9.060;2023-09-19T10:25:40;21.60;99.90
2839;DHT22;1427;48.510;9.060;2023-09-19T10:28:12;21.80;99.90
2839;DHT22;1427;48.510;9.060;2023-09-19T10:30:42;22.30;99.90
2839;DHT22;1427;48.510;9.060;2023-09-19T10:33:13;22.40;99.90
2839;DHT22;1427;48.510;9.060;2023-09-19T10:35:44;22.00;99.90
2839;DHT22;1427;48.510;9.060;2023-09-19T10:38:14;21.80;99.90
2839;DHT22;1427;48.510;9.060;2023-09-19T10:40:49;21.80;99.90
2839;DHT22;1427;48.510;9.060;2023-09-19T10:43:20;21.80;99.90
2839;DHT22;1427;48.510;9.060;2023-09-19T10:45:50;22.00;99.90
2839;DHT22;1427;48.510;9.060;2023-09-19T10:48:20;22.20;99.90
2839;DHT22;1427;48.510;9.060;2023-09-19T10:50:58;22.60;99.90
2839;DHT22;1427;48.510;9.060;2023-09-19T10:53:41;23.00;99.90
2839;DHT22;1427;48.510;9.060;2023-09-19T10:56:17;23.30;99.90
2839;DHT22;1427;48.510;9.060;2023-09-19T10:58:48;23.40;99.90
2839;DHT22;1427;48.510;9.060;2023-09-19T11:01:17;23.50;99.90
2839;DHT22;1427;48.510;9.060;2023-09-19T11:03:45;23.80;99.90
2839;DHT22;1427;48.510;9.060;2023-09-19T11:06:17;23.50;99.90
2839;DHT22;1427;48.510;9.060;2023-09-19T11:08:59;23.30;99.90
2839;DHT22;1427;48.510;9.060;2023-09-19T11:11:50;23.10;99.90
2839;DHT22;1427;48.510;9.060;2023-09-19T11:14:46;22.90;99.90
2839;DHT22;1427;48.510;9.060;2023-09-19T11:17:41;22.90;99.90
2839;DHT22;1427;48.510;9.060;2023-09-19T11:20:23;23.10;99.90
2839;DHT22;1427;48.510;9.060;2023-09-19T11:23:18;23.00;99.60
2839;DHT22;1427;48.510;9.060;2023-09-19T11:25:50;23.00;99.40
2839;DHT22;1427;48.510;9.060;2023-09-19T11:28:35;23.10;99.30
2839;DHT22;1427;48.510;9.060;2023-09-19T11:34:42;23.20;99.40
2839;DHT22;1427;48.510;9.060;2023-09-19T11:40:38;23.30;99.20
2839;DHT22;1427;48.510;9.060;2023-09-19T11:43:28;22.90;99.90
2839;DHT22;1427;48.510;9.060;2023-09-19T11:46:04;22.70;99.90
2839;DHT22;1427;48.510;9.060;2023-09-19T11:48:34;22.60;99.90
2839;DHT22;1427;48.510;9.060;2023-09-19T11:51:17;22.80;99.90
2839;DHT22;1427;48.510;9.060;2023-09-19T11:53:55;22.80;99.90
2839;DHT22;1427;48.510;9.060;2023-09-19T11:56:24;22.80;99.90
2839;DHT22;1427;48.510;9.060;2023-09-19T11:58:55;22.90;99.90
2839;DHT22;1427;48.510;9.060;2023-09-19T12:01:29;23.00;99.60
2839;DHT22;1427;48.510;9.060;2023-09-19T12:04:01;23.10;99.20
2839;DHT22;1427;48.510;9.060;2023-09-19T12:06:32;23.10;98.90
2839;DHT22;1427;48.510;9.060;2023-09-19T12:09:03;23.20;98.70
2839;DHT22;1427;48.510;9.060;2023-09-19T12:11:41;23.30;98.20
2839;DHT22;1427;48.510;9.060;2023-09-19T12:14:11;23.30;98.10
2839;DHT22;1427;48.510;9.060;2023-09-19T12:16:40;23.20;97.90
2839;DHT22;1427;48.510;9.060;2023-09-19T12:19:22;23.30;98.20
2839;DHT22;1427;48.510;9.060;2023-09-19T12:21:59;23.40;98.50
2839;DHT22;1427;48.510;9.060;2023-09-19T12:24:31;23.50;98.70
2839;DHT22;1427;48.510;9.060;2023-09-19T12:27:01;23.50;98.20
2839;DHT22;1427;48.510;9.060;2023-09-19T12:29:32;23.70;98.10
2839;DHT22;1427;48.510;9.060;2023-09-19T12:32:01;23.60;97.90
2839;DHT22;1427;48.510;9.060;2023-09-19T12:34:32;23.60;97.80
2839;DHT22;1427;48.510;9.060;2023-09-19T12:37:11;23.50;97.80
2839;DHT22;1427;48.510;9.060;2023-09-19T12:39:41;23.30;97.20
2839;DHT22;1427;48.510;9.060;2023-09-19T12:42:11;23.50;97.50
2839;DHT22;1427;48.510;9.060;2023-09-19T12:44:42;23.60;97.30
2839;DHT22;1427;48.510;9.060;2023-09-19T12:47:12;23.60;97.30
2839;DHT22;1427;48.510;9.060;2023-09-19T12:50:07;23.60;97.20
2839;DHT22;1427;48.510;9.060;2023-09-19T12:52:43;23.90;96.90
2839;DHT22;1427;48.510;9.060;2023-09-19T12:55:22;23.70;97.00
2839;DHT22;1427;48.510;9.060;2023-09-19T12:58:07;23.70;97.00
2839;DHT22;1427;48.510;9.060;2023-09-19T13:00:37;23.80;97.40
2839;DHT22;1427;48.510;9.060;2023-09-19T13:03:12;23.60;97.90
2839;DHT22;1427;48.510;9.060;2023-09-19T13:05:56;23.50;98.40
2839;DHT22;1427;48.510;9.060;2023-09-19T13:08:29;23.50;98.60
2839;DHT22;1427;48.510;9.060;2023-09-19T13:11:03;23.60;98.60
2839;DHT22;1427;48.510;9.060;2023-09-19T13:13:35;23.70;98.60
2839;DHT22;1427;48.510;9.060;2023-09-19T13:16:04;23.70;98.50
2839;DHT22;1427;48.510;9.060;2023-09-19T13:18:48;23.80;98.70
2839;DHT22;1427;48.510;9.060;2023-09-19T13:21:27;23.80;98.90
2839;DHT22;1427;48.510;9.060;2023-09-19T13:24:18;23.70;98.10
2839;DHT22;1427;48.510;9.060;2023-09-19T13:26:46;23.70;99.00
2839;DHT22;1427;48.510;9.060;2023-09-19T13:29:14;23.80;98.20
2839;DHT22;1427;48.510;9.060;2023-09-19T13:31:46;24.00;98.10
2839;DHT22;1427;48.510;9.060;2023-09-19T13:34:14;24.10;98.00
2839;DHT22;1427;48.510;9.060;2023-09-19T13:36:44;24.00;97.60
2839;DHT22;1427;48.510;9.060;2023-09-19T13:39:14;23.90;97.90
2839;DHT22;1427;48.510;9.060;2023-09-19T13:41:44;23.80;97.90
2839;DHT22;1427;48.510;9.060;2023-09-19T13:44:13;23.80;98.50
2839;DHT22;1427;48.510;9.060;2023-09-19T13:46:43;24.10;97.70
2839;DHT22;1427;48.510;9.060;2023-09-19T13:49:13;23.90;97.60
2839;DHT22;1427;48.510;9.060;2023-09-19T13:51:42;23.90;98.10
2839;DHT22;1427;48.510;9.060;2023-09-19T13:54:11;23.70;98.40
2839;DHT22;1427;48.510;9.060;2023-09-19T13:56:43;23.70;98.00
2839;DHT22;1427;48.510;9.060;2023-09-19T13:59:11;23.80;98.30
2839;DHT22;1427;48.510;9.060;2023-09-19T14:01:39;24.00;98.20
2839;DHT22;1427;48.510;9.060;2023-09-19T14:04:08;24.00;98.20
2839;DHT22;1427;48.510;9.060;2023-09-19T14:06:37;23.90;97.00
2839;DHT22;1427;48.510;9.060;2023-09-19T14:09:09;23.70;97.90
2839;DHT22;1427;48.510;9.060;2023-09-19T14:11:38;23.70;97.00
2839;DHT22;1427;48.510;9.060;2023-09-19T14:14:07;23.60;96.90
2839;DHT22;1427;48.510;9.060;2023-09-19T14:16:35;23.70;96.30
2839;DHT22;1427;48.510;9.060;2023-09-19T14:19:04;23.70;95.50
2839;DHT22;1427;48.510;9.060;2023-09-19T14:21:32;23.70;95.60
2839;DHT22;1427;48.510;9.060;2023-09-19T14:24:00;23.80;96.20
2839;DHT22;1427;48.510;9.060;2023-09-19T14:26:29;23.90;95.30
2839;DHT22;1427;48.510;9.060;2023-09-19T14:28:57;23.80;95.10
2839;DHT22;1427;48.510;9.060;2023-09-19T14:31:27;23.80;95.10
2839;DHT22;1427;48.510;9.060;2023-09-19T14:33:56;23.80;95.80
2839;DHT22;1427;48.510;9.060;2023-09-19T14:36:26;23.70;96.00
2839;DHT22;1427;48.510;9.060;2023-09-19T14:38:55;23.80;95.90
2839;DHT22;1427;48.510;9.060;2023-09-19T14:41:23;23.70;96.00
2839;DHT22;1427;48.510;9.060;2023-09-19T14:43:52;23.50;96.20
2839;DHT22;1427;48.510;9.060;2023-09-19T14:46:22;23.40;96.00
2839;DHT22;1427;48.510;9.060;2023-09-19T14:48:53;23.40;96.10
2839;DHT22;1427;48.510;9.060;2023-09-19T14:51:21;23.30;95.50
2839;DHT22;1427;48.510;9.060;2023-09-19T14:53:49;23.30;95.70
2839;DHT22;1427;48.510;9.060;2023-09-19T14:56:18;23.10;95.50
2839;DHT22;1427;48.510;9.060;2023-09-19T14:58:47;23.20;95.70
2839;DHT22;1427;48.510;9.060;2023-09-19T15:01:15;23.30;95.50
2839;DHT22;1427;48.510;9.060;2023-09-19T15:03:43;23.20;95.90
2839;DHT22;1427;48.510;9.060;2023-09-19T15:06:15;23.20;95.30
2839;DHT22;1427;48.510;9.060;2023-09-19T15:08:44;23.10;95.80
2839;DHT22;1427;48.510;9.060;2023-09-19T15:11:14;23.10;95.60
2839;DHT22;1427;48.510;9.060;2023-09-19T15:13:44;23.20;95.70
2839;DHT22;1427;48.510;9.060;2023-09-19T15:16:13;23.20;95.80
2839;DHT22;1427;48.510;9.060;2023-09-19T15:18:43;23.00;95.80
2839;DHT22;1427;48.510;9.060;2023-09-19T15:21:12;23.00;96.00
2839;DHT22;1427;48.510;9.060;2023-09-19T15:23:43;23.00;96.60
2839;DHT22;1427;48.510;9.060;2023-09-19T15:26:13;23.00;96.50
2839;DHT22;1427;48.510;9.060;2023-09-19T15:28:44;22.90;95.70
2839;DHT22;1427;48.510;9.060;2023-09-19T15:31:13;22.90;95.60
2839;DHT22;1427;48.510;9.060;2023-09-19T15:33:41;22.90;95.20
2839;DHT22;1427;48.510;9.060;2023-09-19T15:36:10;22.80;95.20
2839;DHT22;1427;48.510;9.060;2023-09-19T15:38:57;22.80;95.20
2839;DHT22;1427;48.510;9.060;2023-09-19T15:41:27;22.80;95.20
2839;DHT22;1427;48.510;9.060;2023-09-19T15:43:56;22.80;95.30
2839;DHT22;1427;48.510;9.060;2023-09-19T15:46:25;22.70;95.80
2839;DHT22;1427;48.510;9.060;2023-09-19T15:48:54;22.70;95.90
2839;DHT22;1427;48.510;9.060;2023-09-19T15:51:22;22.70;95.90
2839;DHT22;1427;48.510;9.060;2023-09-19T15:53:54;22.60;95.30
2839;DHT22;1427;48.510;9.060;2023-09-19T15:56:23;22.60;95.20
2839;DHT22;1427;48.510;9.060;2023-09-19T15:58:53;22.60;95.10
2839;DHT22;1427;48.510;9.060;2023-09-19T16:01:22;22.60;95.10
2839;DHT22;1427;48.510;9.060;2023-09-19T16:03:52;22.60;95.00
2839;DHT22;1427;48.510;9.060;2023-09-19T16:06:23;22.60;95.10
2839;DHT22;1427;48.510;9.060;2023-09-19T16:08:55;22.50;94.90
2839;DHT22;1427;48.510;9.060;2023-09-19T16:11:26;22.40;95.00
2839;DHT22;1427;48.510;9.060;2023-09-19T16:13:55;22.40;95.00
2839;DHT22;1427;48.510;9.060;2023-09-19T16:16:25;22.40;95.10
2839;DHT22;1427;48.510;9.060;2023-09-19T16:18:58;22.30;95.30
2839;DHT22;1427;48.510;9.060;2023-09-19T16:21:29;22.30;95.40
2839;DHT22;1427;48.510;9.060;2023-09-19T16:24:00;22.20;95.10
2839;DHT22;1427;48.510;9.060;2023-09-19T16:26:28;22.20;95.10
2839;DHT22;1427;48.510;9.060;2023-09-19T16:28:57;22.10;95.30
2839;DHT22;1427;48.510;9.060;2023-09-19T16:31:28;22.00;95.40
2839;DHT22;1427;48.510;9.060;2023-09-19T16:33:56;21.90;95.30
2839;DHT22;1427;48.510;9.060;2023-09-19T16:36:26;21.80;95.20
2839;DHT22;1427;48.510;9.060;2023-09-19T16:38:55;21.70;95.10
2839;DHT22;1427;48.510;9.060;2023-09-19T16:41:24;21.70;95.00
2839;DHT22;1427;48.510;9.060;2023-09-19T16:43:52;21.70;95.20